createdAt,value
2023-01-10T00:00:26.819Z,94609.00
2023-01-10T00:01:26.691Z,94609.00
2023-01-10T00:02:26.725Z,94611.00
2023-01-10T00:03:26.692Z,94611.00
2023-01-10T00:04:26.771Z,94603.00
2023-01-10T00:05:26.653Z,94600.00
2023-01-10T07:07:36.074Z,95256.00
2023-01-10T08:02:34.589Z,95380.00
2023-01-10T08:03:34.568Z,95385.00
2023-01-10T08:04:34.371Z,95389.00
2023-01-10T08:05:34.365Z,95391.00
2023-01-10T08:06:34.356Z,95387.00
2023-01-10T08:09:34.334Z,95385.00
2023-01-10T08:11:34.315Z,95391.00
2023-01-10T08:12:34.289Z,95397.00
2023-01-10T08:13:34.316Z,95403.00
2023-01-10T08:14:34.361Z,95419.00
2023-01-10T08:15:34.270Z,95423.00
2023-01-10T08:16:34.275Z,95423.00
2023-01-10T08:17:34.254Z,95419.00
2023-01-10T08:19:34.227Z,95419.00
2023-01-10T08:20:34.221Z,95427.00
2023-01-10T08:22:34.547Z,95433.00
2023-01-10T08:23:34.309Z,95436.00
2023-01-10T08:24:34.195Z,95434.00
2023-01-10T08:25:34.190Z,95431.00
2023-01-10T08:27:34.161Z,95429.00
2023-01-10T08:28:34.155Z,95433.00
2023-01-10T08:29:34.151Z,95434.00
2023-01-10T08:30:34.147Z,95436.00
2023-01-10T08:32:34.125Z,95438.00
2023-01-10T08:33:34.135Z,95440.00
2023-01-10T08:34:34.137Z,95448.00
2023-01-10T08:35:34.084Z,95460.00
2023-01-10T08:37:34.072Z,95464.00
2023-01-10T08:38:34.090Z,95470.00
2023-01-10T08:40:34.048Z,95466.00
2023-01-10T08:41:34.042Z,95468.00
2023-01-10T08:42:34.033Z,95462.00
2023-01-10T08:43:34.043Z,95460.00
2023-01-10T08:45:34.062Z,95472.00
2023-01-10T08:48:33.969Z,95483.00
2023-01-10T08:49:33.970Z,95483.00
2023-01-10T08:50:33.966Z,95483.00
2023-01-10T08:51:34.151Z,95487.00
2023-01-10T08:52:33.936Z,95485.00
2023-01-10T08:53:33.937Z,95487.00
2023-01-10T08:54:33.917Z,95493.00
2023-01-10T08:55:33.935Z,95499.00
2023-01-10T08:56:34.131Z,95501.00
2023-01-10T08:57:33.899Z,95501.00
2023-01-10T08:58:33.921Z,95501.00
2023-01-10T09:00:33.867Z,95503.00
2023-01-10T09:01:34.315Z,95495.00
2023-01-10T09:03:34.319Z,95501.00
2023-01-10T09:05:33.846Z,95501.00
2023-01-10T09:06:34.147Z,95497.00
2023-01-10T09:07:33.889Z,95499.00
2023-01-10T09:08:34.150Z,95505.00
2023-01-10T09:09:34.179Z,95511.00
2023-01-10T09:11:33.884Z,95513.00
2023-01-10T09:17:34.131Z,95515.00
2023-01-10T10:07:35.367Z,95574.00
2023-01-10T10:27:34.230Z,95595.00
2023-01-10T10:29:36.522Z,95603.00
2023-01-10T10:49:33.872Z,95605.00
2023-01-10T15:16:30.379Z,95715.00
2023-01-10T18:42:28.440Z,95758.00
2023-01-10T18:43:28.430Z,95758.00
2023-01-10T18:44:28.437Z,95760.00
2023-01-10T18:45:28.416Z,95760.00
2023-01-10T18:46:28.603Z,95760.00
2023-01-10T18:47:28.424Z,95758.00
2023-01-10T18:48:28.394Z,95762.00
2023-01-10T18:49:28.386Z,95762.00
2023-01-10T18:50:28.367Z,95760.00
2023-01-10T18:51:28.357Z,95760.00
2023-01-10T18:52:28.348Z,95764.00
2023-01-10T18:53:28.337Z,95762.00
2023-01-10T18:54:28.345Z,95764.00
2023-01-10T18:55:28.331Z,95764.00
2023-01-10T18:56:28.310Z,95764.00
2023-01-10T18:57:28.303Z,95762.00
2023-01-10T18:58:28.304Z,95764.00
2023-01-10T18:59:28.282Z,95766.00
2023-01-10T19:00:28.273Z,95764.00
2023-01-10T19:01:28.298Z,95766.00
2023-01-10T19:02:28.293Z,95764.00
2023-01-10T19:03:28.269Z,95766.00
2023-01-10T19:04:28.235Z,95764.00
2023-01-10T19:05:28.225Z,95764.00
2023-01-10T19:06:28.219Z,95766.00
2023-01-10T19:07:28.225Z,95766.00
2023-01-10T19:08:28.202Z,95766.00
2023-01-10T19:09:28.381Z,95764.00
2023-01-10T19:10:29.043Z,95764.00
2023-01-10T19:11:28.176Z,95764.00
2023-01-10T19:12:28.158Z,95764.00
2023-01-10T19:27:28.393Z,95777.00
2023-01-10T19:41:28.885Z,95774.00
2023-01-10T19:53:28.393Z,95770.00
